createdAt,value
2018-08-11T00:00:28.279Z,21.92
2018-08-11T00:01:28.230Z,21.94
2018-08-11T00:03:21.048Z,21.95
2018-08-11T00:04:20.969Z,21.90
2018-08-11T00:06:13.759Z,21.99
2018-08-11T00:07:13.709Z,22.01
2018-08-11T00:09:06.529Z,22.17
2018-08-11T00:10:06.450Z,22.20
2018-08-11T00:11:59.237Z,22.22
2018-08-11T00:12:59.193Z,22.10
2018-08-11T00:14:52.014Z,21.99
2018-08-11T00:15:51.934Z,21.94
2018-08-11T00:17:44.728Z,21.85
2018-08-11T00:18:44.672Z,21.83
2018-08-11T00:20:37.494Z,21.85
2018-08-11T00:21:37.414Z,21.79
2018-08-11T00:23:30.205Z,21.81
2018-08-11T00:24:30.158Z,21.78
2018-08-11T00:26:22.980Z,21.75
2018-08-11T00:27:22.899Z,21.88
2018-08-11T00:29:15.689Z,21.99
2018-08-11T00:30:15.642Z,22.04
2018-08-11T00:32:08.462Z,22.02
2018-08-11T00:33:08.386Z,21.91
2018-08-11T00:35:01.170Z,21.91
2018-08-11T00:36:01.121Z,21.94
2018-08-11T00:37:53.943Z,21.99
2018-08-11T00:38:53.864Z,21.99
2018-08-11T00:40:46.654Z,22.04
2018-08-11T00:41:46.606Z,22.06
2018-08-11T00:43:39.427Z,22.09
2018-08-11T00:44:39.347Z,22.12
2018-08-11T00:46:32.138Z,22.04
2018-08-11T00:47:32.090Z,22.09
2018-08-11T00:49:24.920Z,22.02
2018-08-11T00:50:24.827Z,21.98
2018-08-11T00:52:17.619Z,21.97
2018-08-11T00:53:17.570Z,21.74
2018-08-11T00:55:10.390Z,21.81
2018-08-11T00:56:10.310Z,21.82
2018-08-11T00:58:03.102Z,21.76
2018-08-11T00:59:03.049Z,21.69
2018-08-11T01:00:55.872Z,21.67
2018-08-11T01:01:55.788Z,21.64
2018-08-11T01:03:48.582Z,21.75
2018-08-11T01:04:48.532Z,21.69
2018-08-11T01:06:41.352Z,21.81
2018-08-11T01:07:41.271Z,21.74
2018-08-11T01:09:34.065Z,21.83
2018-08-11T01:10:34.013Z,21.76
2018-08-11T01:12:26.829Z,21.74
2018-08-11T01:13:26.752Z,21.75
2018-08-11T01:15:19.542Z,21.74
2018-08-11T01:16:19.491Z,21.76
2018-08-11T01:18:12.311Z,21.82
2018-08-11T01:19:12.231Z,21.76
2018-08-11T01:21:05.020Z,21.67
2018-08-11T01:22:04.971Z,21.60
2018-08-11T01:23:57.792Z,21.56
2018-08-11T01:24:57.712Z,21.60
2018-08-11T01:26:50.498Z,21.56
2018-08-11T01:27:50.449Z,21.57
2018-08-11T01:29:43.269Z,21.64
2018-08-11T01:30:43.189Z,21.61
2018-08-11T01:32:35.978Z,21.69
2018-08-11T01:33:35.929Z,21.67
2018-08-11T01:35:28.757Z,21.74
2018-08-11T01:36:28.677Z,21.74
2018-08-11T01:38:21.459Z,21.81
2018-08-11T01:39:21.410Z,21.78
2018-08-11T01:41:14.230Z,21.81
2018-08-11T01:42:14.156Z,21.83
2018-08-11T01:44:06.967Z,21.78
2018-08-11T01:45:06.889Z,21.76
2018-08-11T01:46:59.709Z,21.67
2018-08-11T01:47:59.631Z,21.59
2018-08-11T01:49:52.418Z,21.56
2018-08-11T01:50:52.369Z,21.60
2018-08-11T01:52:45.191Z,21.53
2018-08-11T01:53:45.108Z,21.54
2018-08-11T01:55:37.896Z,21.35
2018-08-11T01:56:37.849Z,21.41
2018-08-11T01:58:30.670Z,21.41
2018-08-11T01:59:30.591Z,21.36
2018-08-11T02:01:23.383Z,21.38
2018-08-11T02:02:23.332Z,21.41
2018-08-11T02:04:16.158Z,21.34
2018-08-11T02:05:16.075Z,21.29
2018-08-11T02:07:08.864Z,21.41
2018-08-11T02:08:08.814Z,21.44
2018-08-11T02:10:01.635Z,21.45
2018-08-11T02:11:01.556Z,21.41
2018-08-11T02:12:54.346Z,21.45
2018-08-11T02:13:54.296Z,21.41
2018-08-11T02:15:47.119Z,21.29
2018-08-11T02:16:47.041Z,21.45
2018-08-11T02:18:39.828Z,21.38
2018-08-11T02:19:39.779Z,21.29
2018-08-11T02:21:32.596Z,21.41
2018-08-11T02:22:32.518Z,21.44
2018-08-11T02:24:25.310Z,21.46
2018-08-11T02:25:25.263Z,21.36
2018-08-11T02:27:18.078Z,21.44
2018-08-11T02:28:17.997Z,21.42
2018-08-11T02:30:10.787Z,21.38
2018-08-11T02:31:10.750Z,21.41
2018-08-11T02:33:03.558Z,21.36
2018-08-11T02:34:03.477Z,21.39
2018-08-11T02:35:56.265Z,21.36
2018-08-11T02:36:56.215Z,21.42
2018-08-11T02:38:49.039Z,21.29
2018-08-11T02:39:48.955Z,21.30
2018-08-11T02:41:41.745Z,21.26
2018-08-11T02:42:41.697Z,21.27
2018-08-11T02:44:34.514Z,21.36
2018-08-11T02:45:34.435Z,21.39
2018-08-11T02:47:27.221Z,21.27
2018-08-11T02:48:27.172Z,21.30
2018-08-11T02:50:19.995Z,21.38
2018-08-11T02:51:19.913Z,21.36
2018-08-11T02:53:12.698Z,21.30
2018-08-11T02:54:12.647Z,21.23
2018-08-11T02:56:05.467Z,21.23
2018-08-11T02:57:05.385Z,21.29
2018-08-11T02:58:58.174Z,21.17
2018-08-11T02:59:58.126Z,21.14
2018-08-11T03:01:50.960Z,21.08
2018-08-11T03:02:50.866Z,21.06
2018-08-11T03:04:43.662Z,21.05
2018-08-11T03:05:43.614Z,21.11
2018-08-11T03:07:36.442Z,21.01
2018-08-11T03:08:36.352Z,21.06
2018-08-11T03:10:29.139Z,21.05
2018-08-11T03:11:29.089Z,21.13
2018-08-11T03:13:21.906Z,21.23
2018-08-11T03:14:21.835Z,21.24
2018-08-11T03:16:14.614Z,21.17
2018-08-11T03:17:14.566Z,21.26
2018-08-11T03:19:07.390Z,21.29
2018-08-11T03:20:07.305Z,21.29
2018-08-11T03:22:00.094Z,21.24
2018-08-11T03:23:00.045Z,21.23
2018-08-11T03:24:52.863Z,21.19
2018-08-11T03:25:52.783Z,21.26
2018-08-11T03:27:45.575Z,21.21
2018-08-11T03:28:45.524Z,21.20
2018-08-11T03:30:38.362Z,21.08
2018-08-11T03:31:38.268Z,21.08
2018-08-11T03:33:31.054Z,21.05
2018-08-11T03:34:31.003Z,21.05
2018-08-11T03:36:23.841Z,21.04
2018-08-11T03:37:23.745Z,21.05
2018-08-11T03:39:16.534Z,20.95
2018-08-11T03:40:16.483Z,20.91
2018-08-11T03:42:09.300Z,20.89
2018-08-11T03:43:09.222Z,20.99
2018-08-11T03:45:02.010Z,21.02
2018-08-11T03:46:02.045Z,21.14
2018-08-11T03:47:54.775Z,21.06
2018-08-11T03:48:54.696Z,21.05
2018-08-11T03:50:47.484Z,21.06
2018-08-11T03:51:47.435Z,21.05
2018-08-11T03:53:40.253Z,21.06
2018-08-11T03:54:40.172Z,21.13
2018-08-11T03:56:32.960Z,21.06
2018-08-11T03:57:32.915Z,21.11
2018-08-11T03:59:25.729Z,21.08
2018-08-11T04:00:25.652Z,21.06
2018-08-11T04:02:18.441Z,21.11
2018-08-11T04:03:18.392Z,21.06
2018-08-11T04:05:11.212Z,21.06
2018-08-11T04:06:11.132Z,21.06
2018-08-11T04:08:03.920Z,21.08
2018-08-11T04:09:03.870Z,21.04
2018-08-11T04:10:56.689Z,20.96
2018-08-11T04:11:56.608Z,20.84
2018-08-11T04:13:49.398Z,20.86
2018-08-11T04:14:49.356Z,20.86
2018-08-11T04:16:42.167Z,20.86
2018-08-11T04:17:42.093Z,20.83
2018-08-11T04:19:34.877Z,20.91
2018-08-11T04:20:34.828Z,20.95
2018-08-11T04:22:27.647Z,20.89
2018-08-11T04:23:27.564Z,20.81
2018-08-11T04:25:20.355Z,20.91
2018-08-11T04:26:20.304Z,20.86
2018-08-11T04:28:13.126Z,20.93
2018-08-11T04:29:13.051Z,20.93
2018-08-11T04:31:05.835Z,20.86
2018-08-11T04:32:05.785Z,20.96
2018-08-11T04:33:58.602Z,20.96
2018-08-11T04:34:58.521Z,20.90
2018-08-11T04:36:51.307Z,20.87
2018-08-11T04:37:51.261Z,20.86
2018-08-11T04:39:44.075Z,20.86
2018-08-11T04:40:43.995Z,20.84
2018-08-11T04:42:36.786Z,20.87
2018-08-11T04:43:36.735Z,20.80
2018-08-11T04:45:29.555Z,20.86
2018-08-11T04:46:29.472Z,20.84
2018-08-11T04:48:22.262Z,20.84
2018-08-11T04:49:22.214Z,20.93
2018-08-11T04:51:15.032Z,20.81
2018-08-11T04:52:14.953Z,20.76
2018-08-11T04:54:08.360Z,20.77
2018-08-11T04:55:07.692Z,20.74
2018-08-11T04:57:00.512Z,20.83
2018-08-11T04:58:00.432Z,20.87
2018-08-11T04:59:53.218Z,20.80
2018-08-11T05:00:53.194Z,20.62
2018-08-11T05:02:45.988Z,20.56
2018-08-11T05:03:45.908Z,20.53
2018-08-11T05:05:38.694Z,20.43
2018-08-11T05:06:38.644Z,20.33
2018-08-11T05:08:31.464Z,20.38
2018-08-11T05:09:31.385Z,20.35
2018-08-11T05:11:24.177Z,20.41
2018-08-11T05:12:24.122Z,20.41
2018-08-11T05:14:16.939Z,20.58
2018-08-11T05:15:16.860Z,20.62
2018-08-11T05:17:09.646Z,20.68
2018-08-11T05:18:09.595Z,20.71
2018-08-11T05:20:02.415Z,20.80
2018-08-11T05:21:02.337Z,20.81
2018-08-11T05:22:55.124Z,20.80
2018-08-11T05:23:55.075Z,20.72
2018-08-11T05:25:47.893Z,20.71
2018-08-11T05:26:47.813Z,20.74
2018-08-11T05:28:40.602Z,20.80
2018-08-11T05:29:40.554Z,20.80
2018-08-11T05:31:33.372Z,20.79
2018-08-11T05:32:33.293Z,20.86
2018-08-11T05:34:26.079Z,20.83
2018-08-11T05:35:26.030Z,20.90
2018-08-11T05:37:18.849Z,20.86
2018-08-11T05:38:18.769Z,20.83
2018-08-11T05:40:11.555Z,20.84
2018-08-11T05:41:11.505Z,20.83
2018-08-11T05:43:04.320Z,20.81
2018-08-11T05:44:04.240Z,20.91
2018-08-11T05:45:57.031Z,20.90
2018-08-11T05:46:56.977Z,20.86
2018-08-11T05:48:49.797Z,20.87
2018-08-11T05:49:49.719Z,20.99
2018-08-11T05:51:42.507Z,21.02
2018-08-11T05:52:42.458Z,21.05
2018-08-11T05:54:35.279Z,21.01
2018-08-11T05:55:35.199Z,21.13
2018-08-11T05:57:27.987Z,21.11
2018-08-11T05:58:27.942Z,21.02
2018-08-11T06:00:20.754Z,21.02
2018-08-11T06:01:20.674Z,21.09
2018-08-11T06:03:13.461Z,21.09
2018-08-11T06:04:13.410Z,21.09
2018-08-11T06:06:06.228Z,21.11
2018-08-11T06:07:06.149Z,21.06
2018-08-11T06:08:58.937Z,21.13
2018-08-11T06:09:58.886Z,21.16
2018-08-11T06:11:51.722Z,21.17
2018-08-11T06:12:51.626Z,21.29
2018-08-11T06:14:44.413Z,21.30
2018-08-11T06:15:44.365Z,21.27
2018-08-11T06:17:37.183Z,21.38
2018-08-11T06:18:37.103Z,21.30
2018-08-11T06:20:29.895Z,21.36
2018-08-11T06:21:29.868Z,21.38
2018-08-11T06:23:22.661Z,21.45
2018-08-11T06:24:22.580Z,21.42
2018-08-11T06:26:15.369Z,21.41
2018-08-11T06:27:15.318Z,21.45
2018-08-11T06:29:08.139Z,21.51
2018-08-11T06:30:08.059Z,21.50
2018-08-11T06:32:00.903Z,21.54
2018-08-11T06:33:00.797Z,21.51
2018-08-11T06:34:53.652Z,21.51
2018-08-11T06:35:53.538Z,21.41
2018-08-11T06:37:46.327Z,21.42
2018-08-11T06:38:46.273Z,21.50
2018-08-11T06:40:39.104Z,21.45
2018-08-11T06:41:39.015Z,21.48
2018-08-11T06:43:31.815Z,21.56
2018-08-11T06:44:31.753Z,21.51
2018-08-11T06:46:24.573Z,21.50
2018-08-11T06:47:24.494Z,21.50
2018-08-11T06:49:17.283Z,21.53
2018-08-11T06:50:17.233Z,21.57
2018-08-11T06:52:10.055Z,21.54
2018-08-11T06:53:09.974Z,21.61
2018-08-11T06:55:02.761Z,21.64
2018-08-11T06:56:02.711Z,21.69
2018-08-11T06:57:55.528Z,21.64
2018-08-11T06:58:55.449Z,21.72
2018-08-11T07:00:48.238Z,21.78
2018-08-11T07:01:48.190Z,21.76
2018-08-11T07:03:41.023Z,21.79
2018-08-11T07:04:40.927Z,21.83
2018-08-11T07:06:33.786Z,21.79
2018-08-11T07:07:33.662Z,21.85
2018-08-11T07:09:26.487Z,21.83
2018-08-11T07:10:26.400Z,21.90
2018-08-11T07:12:19.189Z,21.90
2018-08-11T07:13:19.140Z,21.88
2018-08-11T07:15:11.958Z,21.97
2018-08-11T07:16:11.880Z,21.97
2018-08-11T07:18:04.667Z,21.99
2018-08-11T07:19:04.618Z,22.01
2018-08-11T07:20:57.955Z,22.06
2018-08-11T07:21:57.353Z,22.09
2018-08-11T07:23:50.145Z,22.07
2018-08-11T07:24:50.094Z,22.16
2018-08-11T07:26:42.913Z,22.19
2018-08-11T07:27:42.836Z,22.20
2018-08-11T07:29:35.623Z,22.23
2018-08-11T07:30:35.574Z,22.16
2018-08-11T07:32:28.395Z,22.22
2018-08-11T07:33:28.314Z,22.23
2018-08-11T07:35:21.113Z,22.25
2018-08-11T07:36:21.194Z,22.29
2018-08-11T07:38:13.872Z,22.28
2018-08-11T07:39:13.794Z,22.31
2018-08-11T07:41:06.583Z,22.34
2018-08-11T07:42:06.536Z,22.32
2018-08-11T07:43:59.371Z,22.37
2018-08-11T07:44:59.275Z,22.34
2018-08-11T07:46:52.061Z,22.41
2018-08-11T07:47:52.013Z,22.35
2018-08-11T07:49:44.831Z,22.34
2018-08-11T07:50:44.751Z,22.37
2018-08-11T07:52:37.541Z,22.44
2018-08-11T07:53:37.491Z,22.35
2018-08-11T07:55:30.308Z,22.37
2018-08-11T07:56:30.230Z,22.39
2018-08-11T07:58:23.020Z,22.44
2018-08-11T07:59:22.969Z,22.44
2018-08-11T08:01:15.800Z,22.49
2018-08-11T08:02:15.711Z,22.47
2018-08-11T08:04:08.501Z,22.54
2018-08-11T08:05:08.452Z,22.56
2018-08-11T08:07:01.280Z,22.57
2018-08-11T08:08:01.278Z,22.57
2018-08-11T08:09:53.989Z,22.47
2018-08-11T08:10:53.940Z,22.56
2018-08-11T08:12:46.760Z,22.67
2018-08-11T08:13:46.690Z,22.62
2018-08-11T08:15:39.469Z,22.68
2018-08-11T08:16:39.420Z,22.60
2018-08-11T08:18:32.238Z,22.59
2018-08-11T08:19:32.159Z,22.64
2018-08-11T08:21:24.952Z,22.65
2018-08-11T08:22:24.903Z,22.64
2018-08-11T08:24:17.727Z,22.60
2018-08-11T08:25:17.649Z,22.54
2018-08-11T08:27:10.438Z,22.64
2018-08-11T08:28:10.389Z,22.60
2018-08-11T08:30:03.213Z,22.57
2018-08-11T08:31:03.131Z,22.57
2018-08-11T08:32:55.921Z,22.56
2018-08-11T08:33:55.942Z,22.59
2018-08-11T08:35:48.693Z,22.60
2018-08-11T08:36:48.614Z,22.60
2018-08-11T08:38:41.405Z,22.62
2018-08-11T08:39:41.357Z,22.57
2018-08-11T08:41:34.176Z,22.69
2018-08-11T08:42:34.097Z,22.65
2018-08-11T08:44:26.887Z,22.60
2018-08-11T08:45:26.840Z,22.64
2018-08-11T08:47:19.706Z,22.67
2018-08-11T08:48:19.581Z,22.60
2018-08-11T08:50:12.373Z,22.64
2018-08-11T08:51:12.323Z,22.65
2018-08-11T08:53:05.146Z,22.71
2018-08-11T08:54:05.067Z,22.68
2018-08-11T08:55:57.853Z,22.68
2018-08-11T08:56:57.804Z,22.72
2018-08-11T08:58:50.626Z,22.72
2018-08-11T08:59:50.545Z,22.72
2018-08-11T09:01:43.337Z,22.74
2018-08-11T09:02:43.288Z,22.64
2018-08-11T09:04:36.108Z,22.74
2018-08-11T09:05:36.064Z,22.75
2018-08-11T09:07:28.865Z,22.69
2018-08-11T09:08:28.770Z,22.78
2018-08-11T09:10:21.594Z,22.72
2018-08-11T09:11:21.513Z,22.75
2018-08-11T09:13:14.304Z,22.68
2018-08-11T09:14:14.254Z,22.69
2018-08-11T09:16:07.072Z,22.72
2018-08-11T09:17:06.993Z,22.72
2018-08-11T09:18:59.782Z,22.72
2018-08-11T09:19:59.732Z,22.82
2018-08-11T09:21:52.553Z,22.78
2018-08-11T09:22:52.473Z,22.78
2018-08-11T09:24:45.264Z,22.77
2018-08-11T09:25:45.216Z,22.77
2018-08-11T09:27:38.043Z,22.83
2018-08-11T09:28:37.957Z,22.80
2018-08-11T09:30:30.749Z,22.82
2018-08-11T09:31:30.701Z,22.78
2018-08-11T09:33:23.520Z,22.82
2018-08-11T09:34:23.440Z,22.83
2018-08-11T09:36:16.230Z,22.83
2018-08-11T09:37:16.182Z,22.89
2018-08-11T09:39:09.001Z,22.80
2018-08-11T09:40:08.923Z,22.86
2018-08-11T09:42:01.715Z,22.84
2018-08-11T09:43:01.666Z,22.87
2018-08-11T09:44:54.487Z,22.87
2018-08-11T09:45:54.445Z,22.86
2018-08-11T09:47:47.197Z,22.86
2018-08-11T09:48:47.148Z,22.84
2018-08-11T09:50:39.967Z,22.84
2018-08-11T09:51:39.890Z,22.84
2018-08-11T09:53:32.677Z,22.90
2018-08-11T09:54:32.627Z,22.89
2018-08-11T09:56:25.446Z,22.92
2018-08-11T09:57:25.368Z,22.90
2018-08-11T09:59:18.163Z,22.94
2018-08-11T10:00:18.113Z,22.90
2018-08-11T10:02:10.936Z,22.93
2018-08-11T10:03:10.857Z,22.92
2018-08-11T10:05:03.691Z,22.96
2018-08-11T10:06:03.599Z,22.87
2018-08-11T10:07:56.419Z,22.90
2018-08-11T10:08:56.349Z,22.90
2018-08-11T10:10:49.135Z,22.92
2018-08-11T10:11:49.085Z,23.01
2018-08-11T10:13:41.902Z,22.93
2018-08-11T10:14:41.824Z,22.93
2018-08-11T10:16:34.615Z,22.89
2018-08-11T10:17:34.566Z,22.94
2018-08-11T10:19:27.385Z,22.92
2018-08-11T10:20:27.309Z,22.94
2018-08-11T10:22:20.100Z,22.96
2018-08-11T10:23:20.051Z,22.99
2018-08-11T10:25:12.888Z,22.90
2018-08-11T10:26:12.791Z,22.94
2018-08-11T10:28:05.583Z,22.94
2018-08-11T10:29:05.535Z,22.93
2018-08-11T10:30:58.356Z,22.97
2018-08-11T10:31:58.279Z,22.96
2018-08-11T10:33:51.070Z,22.94
2018-08-11T10:34:51.021Z,22.97
2018-08-11T10:36:43.841Z,22.99
2018-08-11T10:37:43.763Z,23.04
2018-08-11T10:39:36.555Z,23.02
2018-08-11T10:40:36.512Z,22.96
2018-08-11T10:42:29.331Z,23.05
2018-08-11T10:43:29.250Z,23.02
2018-08-11T10:45:22.039Z,23.02
2018-08-11T10:46:21.990Z,23.05
2018-08-11T10:48:14.814Z,22.99
2018-08-11T10:49:14.734Z,23.05
2018-08-11T10:51:07.524Z,23.04
2018-08-11T10:52:07.480Z,23.04
2018-08-11T10:54:00.296Z,22.96
2018-08-11T10:55:00.215Z,23.05
2018-08-11T10:56:53.005Z,23.02
2018-08-11T10:57:52.956Z,23.04
2018-08-11T10:59:45.777Z,22.97
2018-08-11T11:00:45.698Z,22.94
2018-08-11T11:02:38.486Z,23.05
2018-08-11T11:03:38.438Z,23.02
2018-08-11T11:05:31.262Z,23.08
2018-08-11T11:06:31.181Z,22.97
2018-08-11T11:08:24.024Z,23.02
2018-08-11T11:09:23.924Z,23.05
2018-08-11T11:11:16.745Z,23.05
2018-08-11T11:12:16.665Z,23.11
2018-08-11T11:14:09.512Z,23.05
2018-08-11T11:15:09.408Z,23.04
2018-08-11T11:17:02.241Z,23.02
2018-08-11T11:18:02.152Z,23.09
2018-08-11T11:19:54.944Z,23.04
2018-08-11T11:20:54.936Z,23.08
2018-08-11T11:22:47.715Z,23.01
2018-08-11T11:23:47.634Z,23.07
2018-08-11T11:25:40.426Z,23.04
2018-08-11T11:26:40.378Z,23.04
2018-08-11T11:28:33.201Z,23.08
2018-08-11T11:29:33.130Z,23.02
2018-08-11T11:31:25.910Z,23.07
2018-08-11T11:32:25.861Z,23.08
2018-08-11T11:34:18.682Z,23.09
2018-08-11T11:35:18.605Z,23.04
2018-08-11T11:37:11.408Z,23.08
2018-08-11T11:38:11.349Z,23.07
2018-08-11T11:40:04.172Z,23.15
2018-08-11T11:41:04.088Z,23.15
2018-08-11T11:42:56.877Z,23.07
2018-08-11T11:43:56.830Z,23.14
2018-08-11T11:45:49.649Z,23.15
2018-08-11T11:46:49.574Z,23.12
2018-08-11T11:48:42.363Z,23.15
2018-08-11T11:49:42.314Z,23.08
2018-08-11T11:51:35.136Z,23.12
2018-08-11T11:52:35.059Z,23.09
2018-08-11T11:54:27.850Z,23.15
2018-08-11T11:55:27.802Z,23.17
2018-08-11T11:57:20.623Z,23.12
2018-08-11T11:58:20.545Z,23.17
2018-08-11T12:00:13.335Z,23.14
2018-08-11T12:01:13.288Z,23.14
2018-08-11T12:03:06.113Z,23.11
2018-08-11T12:04:06.030Z,23.17
2018-08-11T12:05:58.918Z,23.11
2018-08-11T12:06:58.772Z,23.08
2018-08-11T12:08:51.595Z,23.14
2018-08-11T12:09:51.517Z,23.14
2018-08-11T12:11:44.312Z,23.17
2018-08-11T12:12:44.260Z,23.14
2018-08-11T12:14:37.086Z,23.24
2018-08-11T12:15:37.000Z,23.08
2018-08-11T12:17:29.793Z,23.15
2018-08-11T12:18:29.746Z,23.09
2018-08-11T12:20:22.567Z,23.05
2018-08-11T12:21:22.491Z,23.15
2018-08-11T12:23:15.281Z,23.14
2018-08-11T12:24:15.232Z,23.14
2018-08-11T12:26:08.055Z,23.09
2018-08-11T12:27:07.975Z,23.14
2018-08-11T12:29:00.767Z,23.17
2018-08-11T12:30:00.721Z,23.17
2018-08-11T12:31:53.565Z,23.22
2018-08-11T12:32:53.459Z,23.17
2018-08-11T12:34:46.251Z,23.15
2018-08-11T12:35:46.204Z,23.20
2018-08-11T12:37:39.043Z,23.20
2018-08-11T12:38:38.946Z,23.27
2018-08-11T12:40:31.736Z,23.22
2018-08-11T12:41:31.687Z,23.23
2018-08-11T12:43:24.505Z,23.24
2018-08-11T12:44:24.425Z,23.24
2018-08-11T12:46:17.220Z,23.22
2018-08-11T12:47:17.171Z,23.19
2018-08-11T12:49:09.996Z,23.27
2018-08-11T12:50:09.914Z,23.24
2018-08-11T12:52:02.704Z,23.27
2018-08-11T12:53:02.657Z,23.26
2018-08-11T12:54:55.478Z,23.24
2018-08-11T12:55:55.399Z,23.24
2018-08-11T12:57:48.190Z,23.26
2018-08-11T12:58:48.143Z,23.29
2018-08-11T13:00:40.965Z,23.29
2018-08-11T13:01:40.906Z,23.27
2018-08-11T13:03:33.676Z,23.27
2018-08-11T13:04:33.628Z,23.27
2018-08-11T13:06:26.451Z,23.31
2018-08-11T13:07:26.373Z,23.29
2018-08-11T13:09:19.163Z,23.26
2018-08-11T13:10:19.112Z,23.26
2018-08-11T13:12:11.935Z,23.22
2018-08-11T13:13:11.858Z,23.22
2018-08-11T13:15:04.647Z,23.31
2018-08-11T13:16:04.600Z,23.38
2018-08-11T13:17:57.420Z,23.40
2018-08-11T13:18:57.344Z,23.38
2018-08-11T13:20:50.279Z,23.24
2018-08-11T13:21:50.089Z,23.40
2018-08-11T13:23:42.905Z,23.35
2018-08-11T13:24:42.826Z,23.35
2018-08-11T13:26:35.618Z,23.31
2018-08-11T13:27:35.604Z,23.35
2018-08-11T13:29:28.393Z,23.34
2018-08-11T13:30:28.312Z,23.32
2018-08-11T13:32:21.105Z,23.35
2018-08-11T13:33:21.056Z,23.38
2018-08-11T13:35:13.876Z,23.31
2018-08-11T13:36:13.801Z,23.42
2018-08-11T13:38:06.587Z,23.40
2018-08-11T13:39:06.538Z,23.31
2018-08-11T13:40:59.357Z,23.32
2018-08-11T13:41:59.280Z,23.34
2018-08-11T13:43:52.070Z,23.32
2018-08-11T13:44:52.021Z,23.32
2018-08-11T13:46:44.844Z,23.34
2018-08-11T13:47:44.761Z,23.34
2018-08-11T13:49:37.606Z,23.35
2018-08-11T13:50:37.505Z,23.27
2018-08-11T13:52:30.330Z,23.34
2018-08-11T13:53:30.250Z,23.29
2018-08-11T13:55:23.040Z,23.31
2018-08-11T13:56:22.991Z,23.35
2018-08-11T13:58:15.812Z,23.32
2018-08-11T13:59:15.732Z,23.32
2018-08-11T14:01:08.541Z,23.32
2018-08-11T14:02:08.476Z,23.34
2018-08-11T14:04:01.312Z,23.34
2018-08-11T14:05:01.217Z,23.43
2018-08-11T14:06:54.008Z,23.42
2018-08-11T14:07:53.958Z,23.35
2018-08-11T14:09:46.781Z,23.42
2018-08-11T14:10:46.702Z,23.43
2018-08-11T14:12:39.494Z,23.39
2018-08-11T14:13:39.450Z,23.52
2018-08-11T14:15:32.276Z,23.46
2018-08-11T14:16:32.190Z,23.39
2018-08-11T14:18:24.982Z,23.45
2018-08-11T14:19:24.933Z,23.46
2018-08-11T14:21:17.763Z,23.43
2018-08-11T14:22:17.676Z,23.38
2018-08-11T14:24:10.471Z,23.46
2018-08-11T14:25:10.420Z,23.38
2018-08-11T14:27:03.264Z,23.38
2018-08-11T14:28:03.165Z,23.46
2018-08-11T14:29:55.955Z,23.42
2018-08-11T14:30:55.908Z,23.46
2018-08-11T14:32:48.848Z,23.47
2018-08-11T14:33:48.651Z,23.45
2018-08-11T14:35:41.442Z,23.46
2018-08-11T14:36:41.391Z,23.43
2018-08-11T14:38:34.252Z,23.55
2018-08-11T14:39:34.135Z,23.53
2018-08-11T14:41:26.926Z,23.50
2018-08-11T14:42:26.880Z,23.43
2018-08-11T14:44:19.742Z,23.50
2018-08-11T14:45:19.621Z,23.52
2018-08-11T14:47:12.416Z,23.50
2018-08-11T14:48:12.365Z,23.50
2018-08-11T14:50:05.187Z,23.49
2018-08-11T14:51:05.110Z,23.57
2018-08-11T14:52:57.901Z,23.61
2018-08-11T14:53:57.855Z,23.47
2018-08-11T14:55:50.674Z,23.50
2018-08-11T14:56:50.597Z,23.49
2018-08-11T14:58:43.394Z,23.57
2018-08-11T14:59:43.346Z,23.47
2018-08-11T15:01:36.170Z,23.50
2018-08-11T15:02:36.090Z,23.61
2018-08-11T15:04:28.881Z,23.49
2018-08-11T15:05:28.831Z,23.50
2018-08-11T15:07:21.658Z,23.45
2018-08-11T15:08:21.575Z,23.52
2018-08-11T15:10:14.512Z,23.55
2018-08-11T15:11:14.318Z,23.55
2018-08-11T15:13:07.154Z,23.47
2018-08-11T15:14:07.058Z,23.55
2018-08-11T15:15:59.878Z,23.53
2018-08-11T15:16:59.800Z,23.50
2018-08-11T15:18:52.619Z,23.53
2018-08-11T15:19:52.540Z,23.55
2018-08-11T15:21:45.331Z,23.53
2018-08-11T15:22:45.284Z,23.58
2018-08-11T15:24:38.107Z,23.58
2018-08-11T15:25:38.030Z,23.58
2018-08-11T15:27:30.819Z,23.60
2018-08-11T15:28:30.770Z,23.57
2018-08-11T15:30:23.594Z,23.58
2018-08-11T15:31:23.514Z,23.57
2018-08-11T15:33:16.342Z,23.58
2018-08-11T15:34:16.259Z,23.57
2018-08-11T15:36:09.080Z,23.53
2018-08-11T15:37:09.004Z,23.53
2018-08-11T15:39:01.794Z,23.62
2018-08-11T15:40:01.748Z,23.58
2018-08-11T15:41:54.586Z,23.60
2018-08-11T15:42:54.490Z,23.58
2018-08-11T15:44:47.287Z,23.68
2018-08-11T15:45:47.241Z,23.58
2018-08-11T15:47:40.061Z,23.65
2018-08-11T15:48:39.979Z,23.60
2018-08-11T15:50:32.769Z,23.65
2018-08-11T15:51:32.720Z,23.61
2018-08-11T15:53:25.539Z,23.64
2018-08-11T15:54:25.467Z,23.67
2018-08-11T15:56:18.254Z,23.64
2018-08-11T15:57:18.207Z,23.64
2018-08-11T15:59:11.028Z,23.62
2018-08-11T16:00:10.950Z,23.60
2018-08-11T16:02:03.745Z,23.61
2018-08-11T16:03:03.701Z,23.58
2018-08-11T16:04:56.516Z,23.52
2018-08-11T16:05:56.438Z,23.67
2018-08-11T16:07:49.230Z,23.62
2018-08-11T16:08:49.182Z,23.61
2018-08-11T16:10:42.006Z,23.61
2018-08-11T16:11:41.927Z,23.61
2018-08-11T16:13:34.718Z,23.62
2018-08-11T16:14:34.679Z,23.64
2018-08-11T16:16:27.491Z,23.65
2018-08-11T16:17:27.412Z,23.62
2018-08-11T16:19:20.202Z,23.61
2018-08-11T16:20:20.154Z,23.61
2018-08-11T16:22:12.992Z,23.64
2018-08-11T16:23:12.898Z,23.62
2018-08-11T16:25:05.690Z,23.61
2018-08-11T16:26:05.642Z,23.61
2018-08-11T16:27:58.468Z,23.62
2018-08-11T16:28:58.386Z,23.60
2018-08-11T16:30:51.177Z,23.64
2018-08-11T16:31:51.129Z,23.58
2018-08-11T16:33:43.953Z,23.62
2018-08-11T16:34:43.876Z,23.64
2018-08-11T16:36:36.667Z,23.67
2018-08-11T16:37:36.619Z,23.61
2018-08-11T16:39:29.497Z,23.58
2018-08-11T16:40:29.365Z,23.64
2018-08-11T16:42:22.153Z,23.61
2018-08-11T16:43:22.106Z,23.61
2018-08-11T16:45:14.925Z,23.53
2018-08-11T16:46:14.846Z,23.58
2018-08-11T16:48:07.639Z,23.64
2018-08-11T16:49:07.591Z,23.64
2018-08-11T16:51:00.411Z,23.62
2018-08-11T16:52:00.334Z,23.62
2018-08-11T16:53:53.208Z,23.55
2018-08-11T16:54:53.077Z,23.64
2018-08-11T16:56:45.897Z,23.64
2018-08-11T16:57:45.819Z,23.64
2018-08-11T16:59:38.615Z,23.61
2018-08-11T17:00:38.573Z,23.65
2018-08-11T17:02:31.383Z,23.60
2018-08-11T17:03:31.305Z,23.61
2018-08-11T17:05:24.098Z,23.57
2018-08-11T17:06:24.050Z,23.64
2018-08-11T17:08:16.871Z,23.62
2018-08-11T17:09:16.793Z,23.62
2018-08-11T17:11:09.587Z,23.60
2018-08-11T17:12:09.538Z,23.62
2018-08-11T17:14:02.361Z,23.61
2018-08-11T17:15:02.283Z,23.67
2018-08-11T17:16:55.074Z,23.64
2018-08-11T17:17:55.027Z,23.62
2018-08-11T17:19:47.866Z,23.64
2018-08-11T17:20:47.825Z,23.58
2018-08-11T17:22:40.561Z,23.61
2018-08-11T17:23:40.513Z,23.61
2018-08-11T17:25:33.335Z,23.64
2018-08-11T17:26:33.255Z,23.61
2018-08-11T17:28:26.046Z,23.65
2018-08-11T17:29:25.997Z,23.60
2018-08-11T17:31:18.821Z,23.62
2018-08-11T17:32:18.743Z,23.64
2018-08-11T17:34:11.533Z,23.61
2018-08-11T17:35:11.486Z,23.62
2018-08-11T17:37:04.311Z,23.67
2018-08-11T17:38:04.231Z,23.62
2018-08-11T17:39:57.024Z,23.64
2018-08-11T17:40:56.974Z,23.62
2018-08-11T17:42:49.801Z,23.67
2018-08-11T17:43:49.715Z,23.67
2018-08-11T17:45:42.508Z,23.70
2018-08-11T17:46:42.459Z,23.61
2018-08-11T17:48:35.278Z,23.61
2018-08-11T17:49:35.203Z,23.62
2018-08-11T17:51:27.995Z,23.70
2018-08-11T17:52:27.947Z,23.62
2018-08-11T17:54:20.766Z,23.65
2018-08-11T17:55:20.723Z,23.61
2018-08-11T17:57:13.480Z,23.65
2018-08-11T17:58:13.431Z,23.70
2018-08-11T18:00:06.252Z,23.67
2018-08-11T18:01:06.175Z,23.65
2018-08-11T18:02:58.967Z,23.53
2018-08-11T18:03:58.919Z,23.60
2018-08-11T18:05:51.740Z,23.61
2018-08-11T18:06:51.671Z,23.67
2018-08-11T18:08:44.453Z,23.64
2018-08-11T18:09:44.404Z,23.67
2018-08-11T18:11:37.227Z,23.64
2018-08-11T18:12:37.150Z,23.61
2018-08-11T18:14:29.940Z,23.67
2018-08-11T18:15:29.892Z,23.55
2018-08-11T18:17:22.713Z,23.68
2018-08-11T18:18:22.632Z,23.61
2018-08-11T18:20:15.427Z,23.67
2018-08-11T18:21:15.378Z,23.65
2018-08-11T18:23:08.200Z,23.68
2018-08-11T18:24:08.122Z,23.64
2018-08-11T18:26:00.913Z,23.67
2018-08-11T18:27:00.864Z,23.64
2018-08-11T18:28:53.687Z,23.62
2018-08-11T18:29:53.609Z,23.64
2018-08-11T18:31:46.402Z,23.62